sensor_id;sensor_type;location;lat;lon;timestamp;temperature;humidity
18126;DHT22;53956;52.442;13.284;2022-08-01T00:01:27;26.10;61.50
18126;DHT22;53956;52.442;13.284;2022-08-01T00:03:54;26.10;62.10
18126;DHT22;53956;52.442;13.284;2022-08-01T00:06:20;26.20;62.00
18126;DHT22;53956;52.442;13.284;2022-08-01T00:08:47;26.10;62.70
18126;DHT22;53956;52.442;13.284;2022-08-01T00:11:13;26.10;62.70
18126;DHT22;53956;52.442;13.284;2022-08-01T00:13:40;26.10;63.40
18126;DHT22;53956;52.442;13.284;2022-08-01T00:16:08;26.00;64.20
18126;DHT22;53956;52.442;13.284;2022-08-01T00:18:35;25.90;65.20
18126;DHT22;53956;52.442;13.284;2022-08-01T00:21:02;25.90;64.90
18126;DHT22;53956;52.442;13.284;2022-08-01T00:23:29;25.90;65.50
18126;DHT22;53956;52.442;13.284;2022-08-01T00:25:56;26.00;66.50
18126;DHT22;53956;52.442;13.284;2022-08-01T00:28:22;26.00;66.50
18126;DHT22;53956;52.442;13.284;2022-08-01T00:30:49;25.90;66.40
18126;DHT22;53956;52.442;13.284;2022-08-01T00:33:17;25.90;66.70
18126;DHT22;53956;52.442;13.284;2022-08-01T00:35:44;25.80;67.10
18126;DHT22;53956;52.442;13.284;2022-08-01T00:38:10;25.80;67.00
18126;DHT22;53956;52.442;13.284;2022-08-01T00:40:37;25.90;67.90
18126;DHT22;53956;52.442;13.284;2022-08-01T00:43:04;25.90;67.40
18126;DHT22;53956;52.442;13.284;2022-08-01T00:45:30;25.90;67.20
18126;DHT22;53956;52.442;13.284;2022-08-01T00:47:57;25.80;67.60
18126;DHT22;53956;52.442;13.284;2022-08-01T00:50:25;25.70;68.10
18126;DHT22;53956;52.442;13.284;2022-08-01T00:52:52;25.80;68.50
18126;DHT22;53956;52.442;13.284;2022-08-01T00:55:20;25.70;68.40
18126;DHT22;53956;52.442;13.284;2022-08-01T00:57:47;25.70;69.20
18126;DHT22;53956;52.442;13.284;2022-08-01T01:00:14;25.70;69.10
18126;DHT22;53956;52.442;13.284;2022-08-01T01:02:41;25.70;68.50
18126;DHT22;53956;52.442;13.284;2022-08-01T01:05:08;25.70;69.80
18126;DHT22;53956;52.442;13.284;2022-08-01T01:07:44;25.70;69.60
18126;DHT22;53956;52.442;13.284;2022-08-01T01:10:15;25.70;68.90
18126;DHT22;53956;52.442;13.284;2022-08-01T01:12:44;25.60;69.70
18126;DHT22;53956;52.442;13.284;2022-08-01T01:15:16;25.60;69.80
18126;DHT22;53956;52.442;13.284;2022-08-01T01:17:48;25.60;70.30
18126;DHT22;53956;52.442;13.284;2022-08-01T01:20:20;25.50;70.80
18126;DHT22;53956;52.442;13.284;2022-08-01T01:22:57;25.60;70.50
18126;DHT22;53956;52.442;13.284;2022-08-01T01:25:41;25.50;71.30
18126;DHT22;53956;52.442;13.284;2022-08-01T01:28:17;25.60;70.70
18126;DHT22;53956;52.442;13.284;2022-08-01T01:30:51;25.60;71.20
18126;DHT22;53956;52.442;13.284;2022-08-01T01:33:21;25.50;72.00
18126;DHT22;53956;52.442;13.284;2022-08-01T01:35:52;25.40;72.00
18126;DHT22;53956;52.442;13.284;2022-08-01T01:38:25;25.50;72.30
18126;DHT22;53956;52.442;13.284;2022-08-01T01:40:53;25.40;72.30
18126;DHT22;53956;52.442;13.284;2022-08-01T01:43:21;25.50;72.50
18126;DHT22;53956;52.442;13.284;2022-08-01T01:45:51;25.50;72.20
18126;DHT22;53956;52.442;13.284;2022-08-01T01:48:20;25.50;72.80
18126;DHT22;53956;52.442;13.284;2022-08-01T01:50:49;25.30;73.10
18126;DHT22;53956;52.442;13.284;2022-08-01T01:53:18;25.40;73.00
18126;DHT22;53956;52.442;13.284;2022-08-01T01:55:48;25.30;74.50
18126;DHT22;53956;52.442;13.284;2022-08-01T01:58:17;25.30;73.70
18126;DHT22;53956;52.442;13.284;2022-08-01T02:00:45;25.30;74.30
18126;DHT22;53956;52.442;13.284;2022-08-01T02:03:14;25.40;73.90
18126;DHT22;53956;52.442;13.284;2022-08-01T02:05:42;25.40;74.10
18126;DHT22;53956;52.442;13.284;2022-08-01T02:08:10;25.20;74.20
18126;DHT22;53956;52.442;13.284;2022-08-01T02:10:39;25.20;74.50
18126;DHT22;53956;52.442;13.284;2022-08-01T02:13:07;25.20;74.60
18126;DHT22;53956;52.442;13.284;2022-08-01T02:15:35;25.20;74.60
18126;DHT22;53956;52.442;13.284;2022-08-01T02:18:06;25.10;75.40
18126;DHT22;53956;52.442;13.284;2022-08-01T02:20:36;25.10;75.60
18126;DHT22;53956;52.442;13.284;2022-08-01T02:23:07;25.10;75.80
18126;DHT22;53956;52.442;13.284;2022-08-01T02:25:39;25.10;75.90
18126;DHT22;53956;52.442;13.284;2022-08-01T02:28:10;25.00;75.90
18126;DHT22;53956;52.442;13.284;2022-08-01T02:30:40;25.00;76.50
18126;DHT22;53956;52.442;13.284;2022-08-01T02:33:12;25.00;76.90
18126;DHT22;53956;52.442;13.284;2022-08-01T02:35:45;25.00;76.80
18126;DHT22;53956;52.442;13.284;2022-08-01T02:38:13;24.90;76.60
18126;DHT22;53956;52.442;13.284;2022-08-01T02:40:45;25.00;76.60
18126;DHT22;53956;52.442;13.284;2022-08-01T02:43:13;25.00;77.10
18126;DHT22;53956;52.442;13.284;2022-08-01T02:45:43;25.00;76.90
18126;DHT22;53956;52.442;13.284;2022-08-01T02:48:14;25.00;77.10
18126;DHT22;53956;52.442;13.284;2022-08-01T02:50:47;25.00;77.40
18126;DHT22;53956;52.442;13.284;2022-08-01T02:53:15;24.90;77.70
18126;DHT22;53956;52.442;13.284;2022-08-01T02:55:44;24.90;77.50
18126;DHT22;53956;52.442;13.284;2022-08-01T02:58:14;25.00;77.60
18126;DHT22;53956;52.442;13.284;2022-08-01T03:00:42;24.90;77.80
18126;DHT22;53956;52.442;13.284;2022-08-01T03:03:09;24.90;78.10
18126;DHT22;53956;52.442;13.284;2022-08-01T03:05:37;24.90;78.10
18126;DHT22;53956;52.442;13.284;2022-08-01T03:08:07;24.80;78.30
18126;DHT22;53956;52.442;13.284;2022-08-01T03:10:36;24.90;78.60
18126;DHT22;53956;52.442;13.284;2022-08-01T03:13:05;24.80;78.60
18126;DHT22;53956;52.442;13.284;2022-08-01T03:15:35;24.80;78.90
18126;DHT22;53956;52.442;13.284;2022-08-01T03:18:02;24.80;78.50
18126;DHT22;53956;52.442;13.284;2022-08-01T03:20:33;24.80;79.00
18126;DHT22;53956;52.442;13.284;2022-08-01T03:23:03;24.80;79.20
18126;DHT22;53956;52.442;13.284;2022-08-01T03:25:32;24.80;78.80
18126;DHT22;53956;52.442;13.284;2022-08-01T03:28:03;24.70;79.00
18126;DHT22;53956;52.442;13.284;2022-08-01T03:30:31;24.80;79.00
18126;DHT22;53956;52.442;13.284;2022-08-01T03:32:59;24.70;78.80
18126;DHT22;53956;52.442;13.284;2022-08-01T03:35:29;24.80;79.10
18126;DHT22;53956;52.442;13.284;2022-08-01T03:37:56;24.70;78.90
18126;DHT22;53956;52.442;13.284;2022-08-01T03:40:28;24.70;79.20
18126;DHT22;53956;52.442;13.284;2022-08-01T03:43:02;24.70;79.40
18126;DHT22;53956;52.442;13.284;2022-08-01T03:45:35;24.80;79.30
18126;DHT22;53956;52.442;13.284;2022-08-01T03:48:06;24.70;79.00
18126;DHT22;53956;52.442;13.284;2022-08-01T03:50:35;24.70;79.20
18126;DHT22;53956;52.442;13.284;2022-08-01T03:53:03;24.80;79.20
18126;DHT22;53956;52.442;13.284;2022-08-01T03:55:33;24.70;79.30
18126;DHT22;53956;52.442;13.284;2022-08-01T03:58:03;24.80;79.00
18126;DHT22;53956;52.442;13.284;2022-08-01T04:00:30;24.90;79.40
18126;DHT22;53956;52.442;13.284;2022-08-01T04:02:57;25.00;79.40
18126;DHT22;53956;52.442;13.284;2022-08-01T04:05:24;24.80;79.30
18126;DHT22;53956;52.442;13.284;2022-08-01T04:07:51;24.90;79.70
18126;DHT22;53956;52.442;13.284;2022-08-01T04:10:21;24.80;79.90
18126;DHT22;53956;52.442;13.284;2022-08-01T04:12:48;25.00;79.30
18126;DHT22;53956;52.442;13.284;2022-08-01T04:15:15;24.90;80.00
18126;DHT22;53956;52.442;13.284;2022-08-01T04:17:42;24.80;80.50
18126;DHT22;53956;52.442;13.284;2022-08-01T04:20:10;24.90;80.90
18126;DHT22;53956;52.442;13.284;2022-08-01T04:22:37;24.90;81.00
18126;DHT22;53956;52.442;13.284;2022-08-01T04:25:09;24.90;80.90
18126;DHT22;53956;52.442;13.284;2022-08-01T04:27:40;24.90;80.90
18126;DHT22;53956;52.442;13.284;2022-08-01T04:30:09;24.80;81.50
18126;DHT22;53956;52.442;13.284;2022-08-01T04:32:38;24.80;81.70
18126;DHT22;53956;52.442;13.284;2022-08-01T04:35:08;24.80;82.00
18126;DHT22;53956;52.442;13.284;2022-08-01T04:37:36;24.80;82.50
18126;DHT22;53956;52.442;13.284;2022-08-01T04:40:04;24.80;81.80
18126;DHT22;53956;52.442;13.284;2022-08-01T04:42:32;24.90;81.70
18126;DHT22;53956;52.442;13.284;2022-08-01T04:44:59;24.90;81.90
18126;DHT22;53956;52.442;13.284;2022-08-01T04:47:27;24.90;82.10
18126;DHT22;53956;52.442;13.284;2022-08-01T04:49:56;24.80;83.00
18126;DHT22;53956;52.442;13.284;2022-08-01T04:52:23;24.70;82.80
18126;DHT22;53956;52.442;13.284;2022-08-01T04:54:50;24.70;83.00
18126;DHT22;53956;52.442;13.284;2022-08-01T04:57:16;24.70;83.80
18126;DHT22;53956;52.442;13.284;2022-08-01T04:59:44;24.60;83.90
18126;DHT22;53956;52.442;13.284;2022-08-01T05:02:13;24.60;83.80
18126;DHT22;53956;52.442;13.284;2022-08-01T05:04:41;24.70;83.30
18126;DHT22;53956;52.442;13.284;2022-08-01T05:07:09;24.70;83.80
18126;DHT22;53956;52.442;13.284;2022-08-01T05:09:37;24.70;83.90
18126;DHT22;53956;52.442;13.284;2022-08-01T05:12:05;24.70;84.50
18126;DHT22;53956;52.442;13.284;2022-08-01T05:14:33;24.70;84.20
18126;DHT22;53956;52.442;13.284;2022-08-01T05:17:00;24.70;83.80
18126;DHT22;53956;52.442;13.284;2022-08-01T05:19:28;24.70;84.00
18126;DHT22;53956;52.442;13.284;2022-08-01T05:21:55;24.70;84.60
18126;DHT22;53956;52.442;13.284;2022-08-01T05:24:23;24.70;84.50
18126;DHT22;53956;52.442;13.284;2022-08-01T05:26:49;24.80;84.00
18126;DHT22;53956;52.442;13.284;2022-08-01T05:29:16;24.80;84.10
18126;DHT22;53956;52.442;13.284;2022-08-01T05:31:43;24.70;84.40
18126;DHT22;53956;52.442;13.284;2022-08-01T05:34:09;24.80;84.30
18126;DHT22;53956;52.442;13.284;2022-08-01T05:36:36;25.20;83.60
18126;DHT22;53956;52.442;13.284;2022-08-01T05:39:03;25.30;82.70
18126;DHT22;53956;52.442;13.284;2022-08-01T05:41:31;25.20;83.10
18126;DHT22;53956;52.442;13.284;2022-08-01T05:43:58;25.10;83.50
18126;DHT22;53956;52.442;13.284;2022-08-01T05:46:24;25.20;82.90
18126;DHT22;53956;52.442;13.284;2022-08-01T05:48:51;25.20;83.00
18126;DHT22;53956;52.442;13.284;2022-08-01T05:51:18;25.10;83.40
18126;DHT22;53956;52.442;13.284;2022-08-01T05:53:44;25.10;83.70
18126;DHT22;53956;52.442;13.284;2022-08-01T05:56:11;25.00;83.60
18126;DHT22;53956;52.442;13.284;2022-08-01T05:58:39;24.90;84.10
18126;DHT22;53956;52.442;13.284;2022-08-01T06:01:05;24.90;83.80
18126;DHT22;53956;52.442;13.284;2022-08-01T06:03:32;24.90;83.90
18126;DHT22;53956;52.442;13.284;2022-08-01T06:05:59;25.00;84.00
18126;DHT22;53956;52.442;13.284;2022-08-01T06:08:25;24.90;84.30
18126;DHT22;53956;52.442;13.284;2022-08-01T06:10:52;24.90;84.30
18126;DHT22;53956;52.442;13.284;2022-08-01T06:13:19;24.90;84.30
18126;DHT22;53956;52.442;13.284;2022-08-01T06:15:47;25.00;84.10
18126;DHT22;53956;52.442;13.284;2022-08-01T06:18:14;25.10;84.90
18126;DHT22;53956;52.442;13.284;2022-08-01T06:20:41;25.10;84.90
18126;DHT22;53956;52.442;13.284;2022-08-01T06:23:08;25.10;85.30
18126;DHT22;53956;52.442;13.284;2022-08-01T06:25:35;25.00;86.10
18126;DHT22;53956;52.442;13.284;2022-08-01T06:28:02;24.90;86.90
18126;DHT22;53956;52.442;13.284;2022-08-01T06:30:29;24.90;87.90
18126;DHT22;53956;52.442;13.284;2022-08-01T06:32:56;25.00;88.00
18126;DHT22;53956;52.442;13.284;2022-08-01T06:35:24;25.00;88.10
18126;DHT22;53956;52.442;13.284;2022-08-01T06:37:50;25.00;88.90
18126;DHT22;53956;52.442;13.284;2022-08-01T06:40:17;24.90;88.80
18126;DHT22;53956;52.442;13.284;2022-08-01T06:42:44;25.00;89.10
18126;DHT22;53956;52.442;13.284;2022-08-01T06:45:12;24.90;89.30
18126;DHT22;53956;52.442;13.284;2022-08-01T06:47:39;25.00;89.20
18126;DHT22;53956;52.442;13.284;2022-08-01T06:50:09;25.00;88.60
18126;DHT22;53956;52.442;13.284;2022-08-01T06:52:36;25.00;88.80
18126;DHT22;53956;52.442;13.284;2022-08-01T06:55:04;25.10;88.80
18126;DHT22;53956;52.442;13.284;2022-08-01T06:57:31;25.00;88.70
18126;DHT22;53956;52.442;13.284;2022-08-01T07:00:01;25.00;88.30
18126;DHT22;53956;52.442;13.284;2022-08-01T07:02:28;25.00;88.40
18126;DHT22;53956;52.442;13.284;2022-08-01T07:04:55;25.00;87.70
18126;DHT22;53956;52.442;13.284;2022-08-01T07:07:26;25.00;87.60
18126;DHT22;53956;52.442;13.284;2022-08-01T07:09:54;25.00;87.60
18126;DHT22;53956;52.442;13.284;2022-08-01T07:12:21;25.10;87.80
18126;DHT22;53956;52.442;13.284;2022-08-01T07:14:47;24.90;87.50
18126;DHT22;53956;52.442;13.284;2022-08-01T07:17:14;25.10;87.70
18126;DHT22;53956;52.442;13.284;2022-08-01T07:19:40;25.10;87.50
18126;DHT22;53956;52.442;13.284;2022-08-01T07:22:07;25.10;87.10
18126;DHT22;53956;52.442;13.284;2022-08-01T07:24:35;25.00;87.70
18126;DHT22;53956;52.442;13.284;2022-08-01T07:27:02;25.00;87.30
18126;DHT22;53956;52.442;13.284;2022-08-01T07:29:29;25.10;87.50
18126;DHT22;53956;52.442;13.284;2022-08-01T07:31:56;25.20;87.30
18126;DHT22;53956;52.442;13.284;2022-08-01T07:34:24;25.20;85.80
18126;DHT22;53956;52.442;13.284;2022-08-01T07:36:51;25.30;86.00
18126;DHT22;53956;52.442;13.284;2022-08-01T07:39:18;25.40;85.90
18126;DHT22;53956;52.442;13.284;2022-08-01T07:41:46;25.30;85.50
18126;DHT22;53956;52.442;13.284;2022-08-01T07:44:13;25.30;85.90
18126;DHT22;53956;52.442;13.284;2022-08-01T07:46:40;25.30;85.90
18126;DHT22;53956;52.442;13.284;2022-08-01T07:49:07;25.40;85.60
18126;DHT22;53956;52.442;13.284;2022-08-01T07:51:33;25.20;85.90
18126;DHT22;53956;52.442;13.284;2022-08-01T07:54:00;25.10;86.10
18126;DHT22;53956;52.442;13.284;2022-08-01T07:56:26;25.10;85.40
18126;DHT22;53956;52.442;13.284;2022-08-01T07:58:54;25.30;85.50
18126;DHT22;53956;52.442;13.284;2022-08-01T08:01:21;25.20;85.20
18126;DHT22;53956;52.442;13.284;2022-08-01T08:03:48;25.10;85.80
18126;DHT22;53956;52.442;13.284;2022-08-01T08:06:14;25.10;85.80
18126;DHT22;53956;52.442;13.284;2022-08-01T08:08:41;25.10;85.10
18126;DHT22;53956;52.442;13.284;2022-08-01T08:11:07;25.10;84.70
18126;DHT22;53956;52.442;13.284;2022-08-01T08:13:34;24.90;85.00
18126;DHT22;53956;52.442;13.284;2022-08-01T08:16:02;25.00;84.30
18126;DHT22;53956;52.442;13.284;2022-08-01T08:18:29;24.90;83.70
18126;DHT22;53956;52.442;13.284;2022-08-01T08:20:55;25.00;83.10
18126;DHT22;53956;52.442;13.284;2022-08-01T08:23:22;25.00;82.70
18126;DHT22;53956;52.442;13.284;2022-08-01T08:26:06;25.00;82.60
18126;DHT22;53956;52.442;13.284;2022-08-01T08:28:33;25.10;82.10
18126;DHT22;53956;52.442;13.284;2022-08-01T08:30:59;25.30;80.70
18126;DHT22;53956;52.442;13.284;2022-08-01T08:33:27;25.50;79.90
18126;DHT22;53956;52.442;13.284;2022-08-01T08:35:54;25.60;78.90
18126;DHT22;53956;52.442;13.284;2022-08-01T08:38:21;25.80;79.00
18126;DHT22;53956;52.442;13.284;2022-08-01T08:40:47;26.00;78.70
18126;DHT22;53956;52.442;13.284;2022-08-01T08:43:15;26.00;77.40
18126;DHT22;53956;52.442;13.284;2022-08-01T08:45:43;25.80;77.90
18126;DHT22;53956;52.442;13.284;2022-08-01T08:48:11;25.60;77.60
18126;DHT22;53956;52.442;13.284;2022-08-01T08:50:40;25.60;77.00
18126;DHT22;53956;52.442;13.284;2022-08-01T08:53:10;25.60;76.60
18126;DHT22;53956;52.442;13.284;2022-08-01T08:55:36;25.70;76.90
18126;DHT22;53956;52.442;13.284;2022-08-01T08:58:04;25.60;77.00
18126;DHT22;53956;52.442;13.284;2022-08-01T09:00:31;25.60;76.40
18126;DHT22;53956;52.442;13.284;2022-08-01T09:02:58;25.50;76.80
18126;DHT22;53956;52.442;13.284;2022-08-01T09:05:25;25.60;76.80
18126;DHT22;53956;52.442;13.284;2022-08-01T09:07:53;25.30;77.00
18126;DHT22;53956;52.442;13.284;2022-08-01T09:10:20;25.50;77.20
18126;DHT22;53956;52.442;13.284;2022-08-01T09:13:06;25.50;77.30
18126;DHT22;53956;52.442;13.284;2022-08-01T09:15:44;25.50;77.70
18126;DHT22;53956;52.442;13.284;2022-08-01T09:18:30;25.40;77.30
18126;DHT22;53956;52.442;13.284;2022-08-01T09:21:08;25.30;77.60
18126;DHT22;53956;52.442;13.284;2022-08-01T09:23:38;25.30;78.10
18126;DHT22;53956;52.442;13.284;2022-08-01T09:26:08;25.20;77.80
18126;DHT22;53956;52.442;13.284;2022-08-01T09:28:34;25.30;77.60
18126;DHT22;53956;52.442;13.284;2022-08-01T09:31:06;25.20;77.60
18126;DHT22;53956;52.442;13.284;2022-08-01T09:33:51;25.30;77.90
18126;DHT22;53956;52.442;13.284;2022-08-01T09:36:19;25.30;77.90
18126;DHT22;53956;52.442;13.284;2022-08-01T09:38:48;25.40;77.70
18126;DHT22;53956;52.442;13.284;2022-08-01T09:41:15;25.60;77.40
18126;DHT22;53956;52.442;13.284;2022-08-01T09:43:48;25.70;77.60
18126;DHT22;53956;52.442;13.284;2022-08-01T09:46:16;25.70;77.30
18126;DHT22;53956;52.442;13.284;2022-08-01T09:48:55;25.70;77.30
18126;DHT22;53956;52.442;13.284;2022-08-01T09:51:30;25.70;77.40
18126;DHT22;53956;52.442;13.284;2022-08-01T09:54:00;25.70;77.20
18126;DHT22;53956;52.442;13.284;2022-08-01T09:56:35;25.70;77.10
18126;DHT22;53956;52.442;13.284;2022-08-01T09:59:02;25.50;77.10
18126;DHT22;53956;52.442;13.284;2022-08-01T10:01:42;25.60;78.20
18126;DHT22;53956;52.442;13.284;2022-08-01T10:04:10;25.50;78.10
18126;DHT22;53956;52.442;13.284;2022-08-01T10:06:38;25.40;77.30
18126;DHT22;53956;52.442;13.284;2022-08-01T10:09:06;25.30;77.40
18126;DHT22;53956;52.442;13.284;2022-08-01T10:11:33;25.30;77.50
18126;DHT22;53956;52.442;13.284;2022-08-01T10:14:02;25.20;78.30
18126;DHT22;53956;52.442;13.284;2022-08-01T10:16:30;25.30;78.20
18126;DHT22;53956;52.442;13.284;2022-08-01T10:18:59;25.30;78.10
18126;DHT22;53956;52.442;13.284;2022-08-01T10:21:27;25.40;77.70
18126;DHT22;53956;52.442;13.284;2022-08-01T10:23:54;25.40;78.00
18126;DHT22;53956;52.442;13.284;2022-08-01T10:26:25;25.30;78.20
18126;DHT22;53956;52.442;13.284;2022-08-01T10:28:52;25.50;77.70
18126;DHT22;53956;52.442;13.284;2022-08-01T10:31:20;25.50;77.90
18126;DHT22;53956;52.442;13.284;2022-08-01T10:33:47;25.50;78.10
18126;DHT22;53956;52.442;13.284;2022-08-01T10:36:17;25.50;77.70
18126;DHT22;53956;52.442;13.284;2022-08-01T10:38:44;25.60;77.30
18126;DHT22;53956;52.442;13.284;2022-08-01T10:41:13;25.70;77.00
18126;DHT22;53956;52.442;13.284;2022-08-01T10:43:42;25.60;77.40
18126;DHT22;53956;52.442;13.284;2022-08-01T10:46:09;25.70;77.70
18126;DHT22;53956;52.442;13.284;2022-08-01T10:48:43;25.70;77.40
18126;DHT22;53956;52.442;13.284;2022-08-01T10:51:14;25.70;77.10
18126;DHT22;53956;52.442;13.284;2022-08-01T10:53:46;25.60;78.20
18126;DHT22;53956;52.442;13.284;2022-08-01T10:56:13;25.50;77.70
18126;DHT22;53956;52.442;13.284;2022-08-01T10:58:43;25.60;77.70
18126;DHT22;53956;52.442;13.284;2022-08-01T11:01:22;25.60;77.20
18126;DHT22;53956;52.442;13.284;2022-08-01T11:04:05;25.60;77.60
18126;DHT22;53956;52.442;13.284;2022-08-01T11:09:29;25.70;76.80
18126;DHT22;53956;52.442;13.284;2022-08-01T11:12:01;25.80;76.80
18126;DHT22;53956;52.442;13.284;2022-08-01T11:14:32;25.70;76.90
18126;DHT22;53956;52.442;13.284;2022-08-01T11:17:32;25.60;77.00
18126;DHT22;53956;52.442;13.284;2022-08-01T11:20:10;25.70;76.90
18126;DHT22;53956;52.442;13.284;2022-08-01T11:26:10;25.50;77.30
18126;DHT22;53956;52.442;13.284;2022-08-01T11:28:37;25.60;77.00
18126;DHT22;53956;52.442;13.284;2022-08-01T11:31:28;25.40;77.30
18126;DHT22;53956;52.442;13.284;2022-08-01T11:33:55;25.30;77.70
18126;DHT22;53956;52.442;13.284;2022-08-01T11:36:23;25.30;77.90
18126;DHT22;53956;52.442;13.284;2022-08-01T11:39:15;25.40;77.70
18126;DHT22;53956;52.442;13.284;2022-08-01T11:41:43;25.30;77.80
18126;DHT22;53956;52.442;13.284;2022-08-01T11:44:11;25.20;79.60
18126;DHT22;53956;52.442;13.284;2022-08-01T11:46:54;25.30;80.20
18126;DHT22;53956;52.442;13.284;2022-08-01T11:49:33;25.30;79.90
18126;DHT22;53956;52.442;13.284;2022-08-01T11:52:04;25.20;80.20
18126;DHT22;53956;52.442;13.284;2022-08-01T11:54:32;25.30;80.20
18126;DHT22;53956;52.442;13.284;2022-08-01T11:57:00;25.40;80.10
18126;DHT22;53956;52.442;13.284;2022-08-01T11:59:28;25.50;79.70
18126;DHT22;53956;52.442;13.284;2022-08-01T12:01:56;25.50;79.40
18126;DHT22;53956;52.442;13.284;2022-08-01T12:04:22;25.60;79.00
18126;DHT22;53956;52.442;13.284;2022-08-01T12:06:49;25.70;79.20
18126;DHT22;53956;52.442;13.284;2022-08-01T12:09:17;25.70;78.20
18126;DHT22;53956;52.442;13.284;2022-08-01T12:11:44;25.70;77.90
18126;DHT22;53956;52.442;13.284;2022-08-01T12:14:16;25.70;77.50
18126;DHT22;53956;52.442;13.284;2022-08-01T12:16:51;25.70;77.80
18126;DHT22;53956;52.442;13.284;2022-08-01T12:19:21;25.70;77.50
18126;DHT22;53956;52.442;13.284;2022-08-01T12:22:08;25.70;77.60
18126;DHT22;53956;52.442;13.284;2022-08-01T12:24:34;25.90;77.70
18126;DHT22;53956;52.442;13.284;2022-08-01T12:27:01;25.90;77.00
18126;DHT22;53956;52.442;13.284;2022-08-01T12:29:36;26.00;77.50
18126;DHT22;53956;52.442;13.284;2022-08-01T12:32:04;26.00;76.30
18126;DHT22;53956;52.442;13.284;2022-08-01T12:34:32;26.00;76.60
18126;DHT22;53956;52.442;13.284;2022-08-01T12:37:01;26.20;76.80
18126;DHT22;53956;52.442;13.284;2022-08-01T12:39:34;26.20;76.80
18126;DHT22;53956;52.442;13.284;2022-08-01T12:42:01;26.30;76.80
18126;DHT22;53956;52.442;13.284;2022-08-01T12:44:31;26.30;75.80
18126;DHT22;53956;52.442;13.284;2022-08-01T12:46:59;26.50;74.80
18126;DHT22;53956;52.442;13.284;2022-08-01T12:49:26;26.60;74.20
18126;DHT22;53956;52.442;13.284;2022-08-01T12:51:55;26.60;74.40
18126;DHT22;53956;52.442;13.284;2022-08-01T12:54:22;26.50;73.50
18126;DHT22;53956;52.442;13.284;2022-08-01T12:56:50;26.60;72.60
18126;DHT22;53956;52.442;13.284;2022-08-01T12:59:22;26.50;71.80
18126;DHT22;53956;52.442;13.284;2022-08-01T13:01:51;26.40;70.50
18126;DHT22;53956;52.442;13.284;2022-08-01T13:04:17;26.30;72.60
18126;DHT22;53956;52.442;13.284;2022-08-01T13:06:44;26.30;73.40
18126;DHT22;53956;52.442;13.284;2022-08-01T13:09:12;26.30;73.20
18126;DHT22;53956;52.442;13.284;2022-08-01T13:11:40;26.20;73.30
18126;DHT22;53956;52.442;13.284;2022-08-01T13:14:07;26.30;72.80
18126;DHT22;53956;52.442;13.284;2022-08-01T13:16:45;26.30;72.70
18126;DHT22;53956;52.442;13.284;2022-08-01T13:19:12;26.20;73.10
18126;DHT22;53956;52.442;13.284;2022-08-01T13:21:53;26.20;73.10
18126;DHT22;53956;52.442;13.284;2022-08-01T13:24:25;26.10;73.70
18126;DHT22;53956;52.442;13.284;2022-08-01T13:26:54;26.20;72.30
18126;DHT22;53956;52.442;13.284;2022-08-01T13:29:30;26.20;71.80
18126;DHT22;53956;52.442;13.284;2022-08-01T13:31:57;26.30;71.50
18126;DHT22;53956;52.442;13.284;2022-08-01T13:34:31;26.10;72.10
18126;DHT22;53956;52.442;13.284;2022-08-01T13:36:58;26.20;72.30
18126;DHT22;53956;52.442;13.284;2022-08-01T13:39:28;26.20;70.40
18126;DHT22;53956;52.442;13.284;2022-08-01T13:42:08;26.30;71.00
18126;DHT22;53956;52.442;13.284;2022-08-01T13:44:35;26.30;70.90
18126;DHT22;53956;52.442;13.284;2022-08-01T13:47:02;26.50;68.70
18126;DHT22;53956;52.442;13.284;2022-08-01T13:49:30;26.50;68.50
18126;DHT22;53956;52.442;13.284;2022-08-01T13:51:56;26.50;68.30
18126;DHT22;53956;52.442;13.284;2022-08-01T13:54:23;26.60;68.50
18126;DHT22;53956;52.442;13.284;2022-08-01T13:56:52;26.40;67.70
18126;DHT22;53956;52.442;13.284;2022-08-01T13:59:19;26.40;67.30
18126;DHT22;53956;52.442;13.284;2022-08-01T14:01:46;26.40;68.20
18126;DHT22;53956;52.442;13.284;2022-08-01T14:04:13;26.40;68.90
18126;DHT22;53956;52.442;13.284;2022-08-01T14:06:40;26.30;69.70
18126;DHT22;53956;52.442;13.284;2022-08-01T14:09:07;26.40;68.20
18126;DHT22;53956;52.442;13.284;2022-08-01T14:11:33;26.40;68.50
18126;DHT22;53956;52.442;13.284;2022-08-01T14:14:01;26.60;69.10
18126;DHT22;53956;52.442;13.284;2022-08-01T14:16:28;26.60;67.80
18126;DHT22;53956;52.442;13.284;2022-08-01T14:18:55;26.60;67.10
18126;DHT22;53956;52.442;13.284;2022-08-01T14:21:21;26.50;65.60
18126;DHT22;53956;52.442;13.284;2022-08-01T14:23:48;26.40;65.80
18126;DHT22;53956;52.442;13.284;2022-08-01T14:26:15;26.50;66.70
18126;DHT22;53956;52.442;13.284;2022-08-01T14:28:42;26.40;66.30
18126;DHT22;53956;52.442;13.284;2022-08-01T14:31:09;26.50;65.70
18126;DHT22;53956;52.442;13.284;2022-08-01T14:33:36;26.50;66.00
18126;DHT22;53956;52.442;13.284;2022-08-01T14:36:03;26.50;66.10
18126;DHT22;53956;52.442;13.284;2022-08-01T14:38:30;26.50;66.00
18126;DHT22;53956;52.442;13.284;2022-08-01T14:40:56;26.50;65.80
18126;DHT22;53956;52.442;13.284;2022-08-01T14:43:24;26.40;66.00
18126;DHT22;53956;52.442;13.284;2022-08-01T14:45:51;26.50;66.50
18126;DHT22;53956;52.442;13.284;2022-08-01T14:48:21;26.50;65.90
18126;DHT22;53956;52.442;13.284;2022-08-01T14:50:47;26.60;63.90
18126;DHT22;53956;52.442;13.284;2022-08-01T14:53:16;26.50;64.50
18126;DHT22;53956;52.442;13.284;2022-08-01T14:55:43;26.60;64.40
18126;DHT22;53956;52.442;13.284;2022-08-01T14:58:10;26.60;64.30
18126;DHT22;53956;52.442;13.284;2022-08-01T15:00:36;26.60;64.30
18126;DHT22;53956;52.442;13.284;2022-08-01T15:03:03;26.60;65.00
18126;DHT22;53956;52.442;13.284;2022-08-01T15:05:31;26.60;65.50
18126;DHT22;53956;52.442;13.284;2022-08-01T15:07:58;26.60;65.20
18126;DHT22;53956;52.442;13.284;2022-08-01T15:10:25;26.60;65.70
18126;DHT22;53956;52.442;13.284;2022-08-01T15:12:52;26.50;65.40
18126;DHT22;53956;52.442;13.284;2022-08-01T15:15:18;26.60;65.30
18126;DHT22;53956;52.442;13.284;2022-08-01T15:17:46;26.40;64.40
18126;DHT22;53956;52.442;13.284;2022-08-01T15:20:13;26.50;65.70
18126;DHT22;53956;52.442;13.284;2022-08-01T15:22:41;26.50;66.90
18126;DHT22;53956;52.442;13.284;2022-08-01T15:25:07;26.50;67.50
18126;DHT22;53956;52.442;13.284;2022-08-01T15:27:34;26.40;67.70
18126;DHT22;53956;52.442;13.284;2022-08-01T15:30:02;26.40;68.80
18126;DHT22;53956;52.442;13.284;2022-08-01T15:32:29;26.30;70.70